Historyczne dane pomiarowe

Dodano dane terminowe – wersja testowa.

Dane z okresu 1951-2019

Wersja bazy: 1.34 [2019-03-16, lista zmian], aktualizacja planowana na 2019-04-15

Dane meteo z obszaru Polski uzyskane na podstawie danych udostępnionych przez Instytut Meteorologii i Gospodarki Wodnej – Państwowy Instytut Badawczy.

 

Wybierz Datę:    

       

TemperaturaWilgotnośćZachmurzenieWiatrCiśnienieWidzialnośćZjawiska
 Data    tng td wb rh cc ccl cl cm ch dir g1 g2 mslp ppp      
1999-06-25 00:00:00 10.9--- 9.2 10.089wxwxwx1wx--1023.71000.3 0.0---wx
1999-06-25 01:00:00 10.7--- 9.2 9.991wxwxwx2wx--1023.51000.1----wx
1999-06-25 02:00:00 10.3--- 9.0 9.692wxwxwx2wx--1023.2 999.8----wx
1999-06-25 03:00:00 9.5--- 8.4 8.993wxwxwxwx1wx--1023.1 999.6----wx
1999-06-25 04:00:00 10.7--- 8.4 9.586wxwxwxwx1wx--1023.2 999.8----wx
1999-06-25 05:00:00 11.3--- 9.3 10.287wxwxwxwx1wx--1023.0 999.6----wx
1999-06-25 06:00:00 11.5--- 8.9 10.184wxwxwx0wx--1023.0 999.7 0.0---wx
1999-06-25 07:00:00 14.1--- 9.2 11.472wxwxwxwx1wx--1022.9 999.8----wx
1999-06-25 08:00:00 14.4--- 9.3 11.672wxwxwxwx1wx--1022.9 999.8----wx
1999-06-25 09:00:00 15.3--- 7.9 11.361wxwxwx1wx--1022.3 999.3----wx
1999-06-25 10:00:00 15.3--- 6.5 10.756wxwxwx1wx--1021.8 998.8----wx
1999-06-25 11:00:00 15.5--- 5.9 10.553wxwxwxwxwx1wx--1021.5 998.5----wx
1999-06-25 12:00:00 16.1--- 6.6 11.153wxwxwx4wx--1021.0 998.1 0.0---wx
1999-06-25 13:00:00 16.0--- 6.5 11.053wxwxwx3wx--1020.8 997.9----wxw1
1999-06-25 14:00:00 15.0--- 6.6 10.657wxwxwxwxwx3wx--1020.8 997.8----wx
1999-06-25 15:00:00 15.1--- 6.5 10.656wxwxwxwxwx3wx--1020.1 997.1----wxw1
1999-06-25 16:00:00 14.7--- 7.8 11.063wxwxwxwxwx3wx--1019.9 996.9----wx
1999-06-25 17:00:00 13.9--- 7.7 10.666wxwxwxwx3wx--1020.1 997.0----wx
1999-06-25 18:00:00 13.1--- 8.2 10.572wxwxwxwx3wx--1019.6 996.5 0.0---wxw1
1999-06-25 19:00:00 12.0--- 8.8 10.381wxwxwxwx1wx--1019.4 996.2----wx
1999-06-25 20:00:00 11.3--- 9.3 10.287wxwxwxwx2wx--1020.0 996.7----wxw1
1999-06-25 21:00:00 10.3--- 8.8 9.590wxwxwxwx1wx--1019.8 996.4----wxw1
1999-06-25 22:00:00 9.3--- 8.0 8.691wxwxwx1wx--1019.2 995.8----wx
1999-06-25 23:00:00 10.3--- 5.7 8.073wxwx0wx--1018.6 995.3----wx

 

Źródłem pochodzenia danych jest Instytut Meteorologii i Gospodarki Wodnej – Państwowy Instytut Badawczy. Dane Instytutu Meteorologii i Gospodarki Wodnej – Państwowego Instytutu Badawczego zostały przetworzone.

Dane źródłowe można odnaleźć na stronie https://dane.imgw.pl